VILK/LKO METAR and TAF weather

Enter ICAO airport designator
Station Type Date Time Source
VILK METAR 2020/07/11 19:30 UTC NOAA

VILK 111930Z 00000KT 3500 BR SCT020 SCT025 29/26 Q0998 NOSIG


Station Type Date Time Source
VILK Decoded METAR 2020/07/11 19:30 UTC NOAA

Lucknow / Amausi, India (VILK) 26-45N 080-53E 128M
Jul 11, 2020 - 03:30 PM EDT / 2020.07.11 1930 UTC
Wind: Calm:0
Visibility: 2 mile(s):0
Sky conditions: partly cloudy
Weather: mist
Temperature: 84 F (29 C)
Dew Point: 78 F (26 C)
Relative Humidity: 83%
Pressure (altimeter): 29.47 in. Hg (0998 hPa)
ob: VILK 111930Z 00000KT 3500 BR SCT020 SCT025 29/26 Q0998 NOSIG
cycle: 19

Station Type Date Time Source
VILK TAF 2020/07/11 18:20 UTC NOAA

TAF VILK 111700Z 1118/1224 00000KT 4000 BR SCT020 BKN100
BECMG 1120/1122 3000 BR SCT020 BKN100
TEMPO 1120/1124 2000 -TSRA -RA FEW030CB OVC090
BECMG 1204/1206 26006KT 5000 HZ SCT020 BKN100
TEMPO 1204/1210 2000 -TSRA -RA FEW030CB OVC090
BECMG 1216/1218 VRB02KT 3000 BR

Example: see airport list